Time;durP1;ratioP1;P1;durP2;ratioP2;P2;SDS_P1;SDS_P2;PMS_P1;PMS_P2;Temp;Humidity;BMP_temperature;BMP_pressure;BME280_temperature;BME280_humidity;BME280_pressure;Samples;Min_cycle;Max_cycle;Signal;HPM_P1;HPM_P2
2022/11/27 00:00:54;;;;;;;7.97;2.03;;;25.80;70.40;;;;;;5009816;28;20026;-66
2022/11/27 00:03:21;;;;;;;8.00;1.92;;;25.90;70.70;;;;;;5010495;28;20479;-65
2022/11/27 00:05:58;;;;;;;6.03;2.00;;;25.70;67.60;;;;;;5007919;28;20036;-68
2022/11/27 00:08:25;;;;;;;6.22;2.38;;;25.70;70.50;;;;;;5005040;28;20495;-66
2022/11/27 00:10:53;;;;;;;10.10;2.33;;;25.70;70.60;;;;;;5006334;28;20033;-67
2022/11/27 00:13:20;;;;;;;5.10;1.65;;;25.60;69.50;;;;;;5007092;28;20569;-66
2022/11/27 00:15:47;;;;;;;9.43;2.63;;;25.30;70.20;;;;;;5006931;28;20055;-65
2022/11/27 00:18:14;;;;;;;7.00;2.53;;;25.10;70.90;;;;;;5006930;28;20037;-66
2022/11/27 00:20:41;;;;;;;7.10;1.60;;;24.90;71.00;;;;;;5007706;28;20149;-65
2022/11/27 00:23:09;;;;;;;7.47;1.85;;;24.70;72.50;;;;;;5005889;28;20029;-65
2022/11/27 00:25:36;;;;;;;11.13;2.88;;;24.60;73.70;;;;;;5006943;28;20040;-64
2022/11/27 00:28:03;;;;;;;7.30;1.80;;;24.50;74.80;;;;;;5006844;28;20041;-65
2022/11/27 00:30:30;;;;;;;5.43;2.00;;;24.30;74.70;;;;;;5006471;28;20032;-65
2022/11/27 00:32:57;;;;;;;7.18;2.03;;;24.30;76.50;;;;;;5006648;28;20050;-65
2022/11/27 00:35:25;;;;;;;7.03;2.10;;;24.40;75.20;;;;;;5006759;28;20113;-65
2022/11/27 00:37:52;;;;;;;6.95;2.63;;;24.40;74.60;;;;;;5006527;28;20022;-67
2022/11/27 00:40:19;;;;;;;6.95;2.17;;;24.30;76.00;;;;;;4999426;28;20037;-66
2022/11/27 00:42:46;;;;;;;10.15;2.20;;;24.30;75.70;;;;;;5006024;28;20026;-66
2022/11/27 00:45:13;;;;;;;9.50;2.13;;;24.40;74.60;;;;;;5004293;28;20039;-65
2022/11/27 00:47:41;;;;;;;4.82;1.90;;;24.50;75.40;;;;;;5002298;28;20459;-64
2022/11/27 00:50:08;;;;;;;7.25;2.13;;;24.60;75.50;;;;;;5004138;28;20057;-65
2022/11/27 00:52:35;;;;;;;7.85;1.90;;;25.00;73.30;;;;;;5004539;28;20617;-71
2022/11/27 00:55:03;;;;;;;8.10;1.95;;;25.60;73.60;;;;;;5001746;28;20108;-67
2022/11/27 00:57:30;;;;;;;8.30;2.65;;;26.20;73.10;;;;;;5004055;28;20021;-67
2022/11/27 00:59:57;;;;;;;12.52;2.35;;;26.50;72.30;;;;;;5005443;28;20044;-72
2022/11/27 01:02:24;;;;;;;8.45;2.33;;;26.70;69.90;;;;;;5001430;28;20494;-72
2022/11/27 01:04:52;;;;;;;9.30;2.08;;;26.70;69.00;;;;;;5001507;28;20026;-74
2022/11/27 01:07:19;;;;;;;8.70;2.25;;;26.60;67.80;;;;;;5004529;28;20503;-74
2022/11/27 01:09:46;;;;;;;9.73;2.88;;;26.50;68.70;;;;;;5003465;28;20470;-64
2022/11/27 01:12:13;;;;;;;7.40;2.75;;;26.40;69.30;;;;;;5002575;28;20113;-67
2022/11/27 01:14:41;;;;;;;9.90;2.20;;;26.50;69.30;;;;;;5004009;28;20113;-67
2022/11/27 01:17:08;;;;;;;6.30;2.03;;;26.60;69.90;;;;;;5004825;28;20125;-67
2022/11/27 01:19:36;;;;;;;5.80;2.17;;;26.60;67.20;;;;;;5004964;28;20030;-68
2022/11/27 01:22:03;;;;;;;5.70;1.65;;;26.40;67.70;;;;;;5005100;28;20100;-69
2022/11/27 01:24:31;;;;;;;8.85;1.95;;;26.10;69.50;;;;;;5005620;28;20076;-68
2022/11/27 01:26:58;;;;;;;6.90;2.13;;;25.90;69.80;;;;;;5006024;28;20105;-67
2022/11/27 01:29:25;;;;;;;6.32;1.70;;;26.00;71.50;;;;;;5004846;28;20779;-67
2022/11/27 01:31:52;;;;;;;8.75;2.47;;;26.10;70.10;;;;;;5004115;28;20075;-69
2022/11/27 01:34:19;;;;;;;11.57;3.00;;;26.00;70.00;;;;;;5003400;28;20042;-70
2022/11/27 01:36:47;;;;;;;4.70;2.17;;;26.10;70.70;;;;;;5001745;28;20025;-67
2022/11/27 01:39:17;;;;;;;7.63;2.40;;;26.20;70.90;;;;;;5009800;28;20600;-69
2022/11/27 01:41:45;;;;;;;6.10;1.95;;;26.20;69.50;;;;;;5003731;28;20030;-70
2022/11/27 01:44:24;;;;;;;7.13;2.28;;;26.00;69.50;;;;;;5004988;28;20113;-70
2022/11/27 01:47:04;;;;;;;9.85;2.50;;;25.60;70.90;;;;;;5004138;28;20091;-70
2022/11/27 01:49:31;;;;;;;9.85;2.40;;;25.60;71.20;;;;;;5004314;28;20021;-68
2022/11/27 01:52:27;;;;;;;8.50;2.17;;;25.70;71.90;;;;;;5018632;28;20034;-68
2022/11/27 01:55:20;;;;;;;6.10;1.98;;;25.90;70.80;;;;;;5002127;28;20135;-67
2022/11/27 01:57:55;;;;;;;9.40;2.47;;;26.10;70.40;;;;;;4994330;28;20062;-68
2022/11/27 02:00:24;;;;;;;7.68;2.40;;;26.30;70.30;;;;;;5003874;28;20022;-66
2022/11/27 02:02:51;;;;;;;4.63;2.03;;;26.50;68.80;;;;;;5006068;28;20117;-69
2022/11/27 02:05:22;;;;;;;10.35;2.53;;;26.60;68.50;;;;;;5004538;28;20105;-69
2022/11/27 02:07:51;;;;;;;4.55;1.90;;;26.50;68.50;;;;;;5002727;28;20484;-69
2022/11/27 02:10:19;;;;;;;6.43;2.30;;;26.30;69.00;;;;;;5005959;28;20037;-68
2022/11/27 02:13:02;;;;;;;8.45;2.30;;;26.50;71.00;;;;;;5005199;28;20060;-68
2022/11/27 02:16:06;;;;;;;8.70;2.55;;;26.50;69.00;;;;;;5005490;28;20096;-69
2022/11/27 02:18:36;;;;;;;7.97;2.42;;;26.60;69.20;;;;;;4994334;28;20049;-68
2022/11/27 02:21:32;;;;;;;11.13;2.38;;;26.60;68.80;;;;;;5005171;28;20131;-59
2022/11/27 02:24:16;;;;;;;7.50;2.40;;;26.50;70.00;;;;;;4991060;28;20030;-68
2022/11/27 02:27:03;;;;;;;10.88;2.63;;;26.40;70.20;;;;;;5002482;28;20215;-66
2022/11/27 02:29:33;;;;;;;6.93;2.00;;;26.20;71.30;;;;;;4991443;28;20058;-70
2022/11/27 02:32:28;;;;;;;9.95;2.35;;;26.30;72.10;;;;;;4998794;28;20026;-69
2022/11/27 02:35:14;;;;;;;7.68;2.40;;;26.50;70.40;;;;;;5003731;28;20553;-69
2022/11/27 02:37:52;;;;;;;11.32;2.97;;;26.90;71.30;;;;;;5005275;28;20495;-67
2022/11/27 02:40:46;;;;;;;10.38;2.58;;;27.20;68.30;;;;;;5008495;28;20037;-67
2022/11/27 02:43:25;;;;;;;10.53;2.70;;;27.40;68.70;;;;;;5004424;28;20037;-67
2022/11/27 02:45:53;;;;;;;10.32;2.80;;;28.30;70.60;;;;;;5005432;28;20486;-69
2022/11/27 02:48:26;;;;;;;7.60;2.10;;;29.30;68.20;;;;;;4996708;28;20052;-71
2022/11/27 02:50:55;;;;;;;12.07;2.60;;;30.20;66.60;;;;;;5001814;28;20060;-69
2022/11/27 02:53:30;;;;;;;8.07;2.72;;;30.60;61.40;;;;;;5003886;28;20033;-68
2022/11/27 02:55:59;;;;;;;5.72;2.38;;;31.30;60.30;;;;;;5004858;28;20057;-69
2022/11/27 02:58:29;;;;;;;4.57;2.10;;;31.60;58.70;;;;;;5017843;28;20097;-69
2022/11/27 03:00:57;;;;;;;8.70;2.30;;;32.10;58.50;;;;;;5004409;28;20030;-69
2022/11/27 03:03:29;;;;;;;4.70;1.85;;;32.10;57.00;;;;;;5003957;28;20030;-66
2022/11/27 03:06:01;;;;;;;10.95;2.33;;;32.10;55.30;;;;;;5003330;28;20026;-67
2022/11/27 03:08:41;;;;;;;6.40;2.38;;;31.80;56.50;;;;;;4994496;28;20383;-67
2022/11/27 03:11:12;;;;;;;8.07;2.10;;;31.50;56.80;;;;;;5004555;28;20120;-67
2022/11/27 03:13:48;;;;;;;8.52;2.20;;;31.40;57.30;;;;;;5003497;28;20145;-67
2022/11/27 03:16:27;;;;;;;6.72;1.98;;;31.70;56.90;;;;;;5004967;28;20503;-67
2022/11/27 03:19:18;;;;;;;5.47;2.00;;;31.50;55.80;;;;;;5004738;28;20569;-67
2022/11/27 03:21:57;;;;;;;5.10;1.90;;;31.80;56.20;;;;;;4985512;28;20733;-67
2022/11/27 03:24:26;;;;;;;7.63;1.90;;;32.40;55.90;;;;;;4993309;28;20057;-67
2022/11/27 03:26:53;;;;;;;5.90;1.83;;;32.60;55.00;;;;;;5004878;28;20110;-67
2022/11/27 03:29:43;;;;;;;3.67;1.70;;;32.60;54.50;;;;;;5002957;28;20030;-67
2022/11/27 03:32:10;;;;;;;5.57;2.17;;;32.50;54.90;;;;;;5002852;28;20072;-67
2022/11/27 03:34:38;;;;;;;6.95;2.30;;;32.10;54.30;;;;;;4998022;28;20060;-66
2022/11/27 03:37:05;;;;;;;5.07;2.58;;;32.20;56.90;;;;;;5003425;28;20080;-66
2022/11/27 03:39:33;;;;;;;7.60;2.25;;;32.60;55.40;;;;;;5003350;28;20018;-67
2022/11/27 03:42:00;;;;;;;5.80;2.08;;;32.80;52.90;;;;;;5003482;28;20033;-67
2022/11/27 03:44:55;;;;;;;6.03;1.92;;;33.50;54.90;;;;;;5004484;28;20033;-67
2022/11/27 03:47:49;;;;;;;6.32;2.13;;;33.80;52.90;;;;;;5007652;28;20022;-67
2022/11/27 03:50:20;;;;;;;5.55;2.20;;;34.20;50.40;;;;;;5006105;28;20549;-67
2022/11/27 03:53:10;;;;;;;5.45;2.15;;;34.20;50.50;;;;;;5008157;28;20072;-67
2022/11/27 03:56:04;;;;;;;6.22;1.42;;;34.00;50.00;;;;;;5007766;28;20380;-67
2022/11/27 03:59:01;;;;;;;3.42;1.52;;;33.50;51.10;;;;;;5007782;28;20037;-67
2022/11/27 04:01:30;;;;;;;5.47;2.10;;;33.40;50.10;;;;;;5006843;28;20403;-67
2022/11/27 04:03:57;;;;;;;3.58;1.83;;;33.10;50.80;;;;;;5009469;28;20032;-67
2022/11/27 04:06:24;;;;;;;4.55;1.60;;;33.10;52.10;;;;;;5010019;28;20454;-68
2022/11/27 04:08:51;;;;;;;9.88;3.13;;;32.90;50.40;;;;;;5010499;28;20026;-67
2022/11/27 04:11:19;;;;;;;7.35;2.10;;;32.80;50.40;;;;;;5009621;28;20491;-67
2022/11/27 04:13:46;;;;;;;3.92;1.60;;;32.70;52.90;;;;;;5009485;28;20030;-67
2022/11/27 04:16:13;;;;;;;4.63;1.75;;;32.80;50.80;;;;;;5008237;28;20041;-67
2022/11/27 04:18:40;;;;;;;4.07;1.40;;;32.70;51.60;;;;;;5009953;28;20026;-67
2022/11/27 04:21:08;;;;;;;7.15;2.00;;;32.60;51.40;;;;;;5009543;28;20034;-67
2022/11/27 04:23:37;;;;;;;6.22;1.88;;;32.30;51.50;;;;;;5009831;28;20025;-67
2022/11/27 04:26:05;;;;;;;5.90;2.03;;;31.90;51.60;;;;;;5009056;28;20026;-68
2022/11/27 04:28:32;;;;;;;3.28;1.55;;;31.60;52.20;;;;;;5009516;28;20033;-67
2022/11/27 04:30:59;;;;;;;4.93;1.30;;;31.30;53.30;;;;;;5009350;28;20188;-67
2022/11/27 04:33:27;;;;;;;7.75;1.77;;;31.00;55.30;;;;;;5009371;28;20102;-67
2022/11/27 04:35:54;;;;;;;5.80;2.13;;;30.70;58.10;;;;;;5008268;28;20065;-68
2022/11/27 04:38:22;;;;;;;6.15;2.00;;;30.30;60.90;;;;;;5009590;28;20022;-67
2022/11/27 04:40:52;;;;;;;6.20;1.95;;;30.00;61.30;;;;;;5009383;28;20075;-66
2022/11/27 04:43:20;;;;;;;12.55;2.60;;;29.80;62.70;;;;;;5008540;28;20034;-66
2022/11/27 04:45:47;;;;;;;9.02;2.58;;;29.70;63.80;;;;;;5007670;28;20018;-66
2022/11/27 04:48:14;;;;;;;10.13;2.15;;;29.60;63.80;;;;;;5006331;28;20139;-66
2022/11/27 04:50:41;;;;;;;7.03;2.55;;;29.60;63.50;;;;;;5006321;28;20029;-66
2022/11/27 04:53:09;;;;;;;5.20;2.67;;;29.70;64.90;;;;;;5007120;28;20037;-66
2022/11/27 04:55:36;;;;;;;10.18;2.47;;;29.80;63.40;;;;;;5005637;28;20684;-66
2022/11/27 04:58:03;;;;;;;9.23;2.67;;;29.70;63.90;;;;;;5006741;28;20024;-66
2022/11/27 05:00:31;;;;;;;11.30;2.65;;;29.70;62.90;;;;;;5006020;28;20053;-66
2022/11/27 05:02:58;;;;;;;6.18;2.45;;;29.50;64.00;;;;;;5005853;28;20113;-66
2022/11/27 05:05:25;;;;;;;8.43;2.25;;;29.40;64.20;;;;;;5006335;28;20033;-67
2022/11/27 05:07:52;;;;;;;11.77;3.45;;;29.20;65.00;;;;;;5005831;28;20025;-66
2022/11/27 05:10:20;;;;;;;9.90;3.15;;;29.00;66.40;;;;;;5005524;28;20061;-65
2022/11/27 05:12:47;;;;;;;7.97;3.00;;;28.90;66.70;;;;;;5000836;28;20125;-66
2022/11/27 05:15:14;;;;;;;8.32;2.53;;;28.90;67.40;;;;;;5005949;28;20073;-66
2022/11/27 05:17:41;;;;;;;7.53;2.78;;;29.00;67.80;;;;;;5006100;28;20069;-66
2022/11/27 05:20:09;;;;;;;12.65;3.00;;;29.10;67.30;;;;;;5006149;28;20109;-66
2022/11/27 05:22:36;;;;;;;11.77;3.15;;;29.20;66.20;;;;;;5006016;28;20080;-66
2022/11/27 05:25:04;;;;;;;8.93;2.50;;;29.30;65.70;;;;;;5005943;28;20491;-67
2022/11/27 05:27:35;;;;;;;5.93;2.35;;;29.50;65.20;;;;;;5006577;28;20041;-66
2022/11/27 05:30:02;;;;;;;6.47;2.42;;;29.70;64.40;;;;;;5006399;28;20026;-67
2022/11/27 05:32:30;;;;;;;11.07;2.70;;;29.60;64.50;;;;;;5004591;28;20029;-67
2022/11/27 05:34:57;;;;;;;5.60;2.42;;;29.50;64.60;;;;;;5005710;28;20037;-66
2022/11/27 05:37:25;;;;;;;5.43;2.10;;;29.40;63.90;;;;;;5004764;28;20021;-66
2022/11/27 05:39:52;;;;;;;6.45;2.33;;;29.40;64.80;;;;;;5006078;28;20030;-66
2022/11/27 05:42:19;;;;;;;11.40;3.40;;;29.40;64.40;;;;;;5006683;28;20029;-67
2022/11/27 05:44:46;;;;;;;8.55;2.90;;;29.40;65.00;;;;;;5006971;28;20239;-66
2022/11/27 05:47:14;;;;;;;8.32;2.40;;;29.30;64.50;;;;;;5007529;28;20050;-67
2022/11/27 05:49:41;;;;;;;7.32;2.15;;;29.30;64.80;;;;;;5007193;28;20109;-66
2022/11/27 05:52:08;;;;;;;7.53;2.22;;;29.30;64.30;;;;;;5007987;28;20026;-66
2022/11/27 05:54:35;;;;;;;8.75;2.22;;;29.20;64.10;;;;;;5004275;28;20104;-67
2022/11/27 05:57:02;;;;;;;14.88;2.20;;;29.00;65.00;;;;;;4999642;28;20025;-67
2022/11/27 05:59:30;;;;;;;6.40;2.20;;;28.70;64.20;;;;;;4999194;28;20018;-67
2022/11/27 06:01:57;;;;;;;6.07;2.08;;;28.60;65.40;;;;;;5007788;28;20022;-68
2022/11/27 06:04:24;;;;;;;3.53;2.10;;;28.30;66.60;;;;;;5008358;28;20137;-66
2022/11/27 06:06:51;;;;;;;7.05;2.42;;;28.40;68.70;;;;;;5007337;28;20071;-66
2022/11/27 06:09:18;;;;;;;7.22;2.10;;;28.60;67.60;;;;;;5006661;28;20040;-65
2022/11/27 06:11:45;;;;;;;7.78;2.13;;;28.40;66.80;;;;;;5007367;28;20076;-66
2022/11/27 06:14:13;;;;;;;4.53;1.67;;;28.10;67.70;;;;;;5007506;28;20030;-66
2022/11/27 06:16:40;;;;;;;6.53;1.70;;;27.90;67.30;;;;;;5007840;28;20094;-66
2022/11/27 06:19:08;;;;;;;7.80;2.33;;;28.00;66.50;;;;;;5006335;28;20089;-66
2022/11/27 06:21:35;;;;;;;8.20;2.53;;;28.00;65.30;;;;;;5007724;28;20037;-66
2022/11/27 06:24:03;;;;;;;12.80;3.13;;;28.00;63.30;;;;;;5007246;28;20022;-65
2022/11/27 06:26:31;;;;;;;11.20;3.17;;;28.40;64.00;;;;;;5007454;28;20057;-66
2022/11/27 06:29:00;;;;;;;12.65;3.08;;;28.30;62.80;;;;;;5007657;28;20108;-66
2022/11/27 06:31:30;;;;;;;15.10;2.83;;;28.40;62.20;;;;;;5007730;28;20038;-67
2022/11/27 06:33:58;;;;;;;6.05;2.80;;;28.20;62.70;;;;;;5007459;28;20412;-67
2022/11/27 06:36:29;;;;;;;9.82;2.80;;;28.20;62.00;;;;;;5007514;28;20104;-66
2022/11/27 06:38:57;;;;;;;12.38;2.20;;;28.40;62.40;;;;;;5007801;28;20372;-67
2022/11/27 06:41:26;;;;;;;4.18;1.45;;;28.40;61.90;;;;;;5004344;28;20115;-66
2022/11/27 06:43:55;;;;;;;11.05;2.15;;;28.10;60.50;;;;;;5006389;28;20022;-66
2022/11/27 06:46:23;;;;;;;6.30;1.70;;;27.90;61.90;;;;;;5007568;28;20506;-65
2022/11/27 06:48:52;;;;;;;6.80;1.75;;;27.70;62.70;;;;;;5006368;28;20061;-66
2022/11/27 06:51:21;;;;;;;7.70;1.30;;;27.50;63.80;;;;;;5004109;28;20028;-67
2022/11/27 06:53:49;;;;;;;2.70;1.13;;;27.30;62.80;;;;;;4999906;28;20402;-66
2022/11/27 06:56:23;;;;;;;5.78;1.38;;;27.10;63.10;;;;;;5007541;28;20023;-66
2022/11/27 06:58:55;;;;;;;7.32;1.30;;;27.00;64.30;;;;;;5007318;28;20049;-66
2022/11/27 07:01:23;;;;;;;3.90;1.30;;;26.90;65.40;;;;;;5006949;28;20430;-66
2022/11/27 07:03:51;;;;;;;3.30;1.23;;;26.80;66.00;;;;;;5006863;28;20022;-65
2022/11/27 07:06:21;;;;;;;7.53;1.48;;;26.70;66.40;;;;;;5006815;28;20084;-66
2022/11/27 07:08:48;;;;;;;3.13;1.42;;;26.70;66.80;;;;;;5006652;28;20095;-65
2022/11/27 07:11:18;;;;;;;4.57;1.52;;;26.60;67.00;;;;;;5006379;28;20501;-66
2022/11/27 07:13:46;;;;;;;3.72;1.55;;;26.50;67.50;;;;;;5006366;28;20053;-66
2022/11/27 07:16:14;;;;;;;2.78;1.23;;;26.40;67.50;;;;;;5007331;28;20037;-64
2022/11/27 07:18:47;;;;;;;3.15;1.60;;;26.30;68.10;;;;;;5007478;28;20061;-64
2022/11/27 07:21:15;;;;;;;4.53;1.60;;;26.20;68.80;;;;;;5004334;28;20026;-61
2022/11/27 07:23:42;;;;;;;5.03;2.08;;;26.10;69.50;;;;;;5000102;28;20065;-61
2022/11/27 07:26:13;;;;;;;6.68;1.65;;;26.00;70.20;;;;;;5008627;28;20470;-61
2022/11/27 07:28:43;;;;;;;6.15;1.92;;;25.90;70.70;;;;;;5009262;28;20494;-61
2022/11/27 07:31:12;;;;;;;8.57;1.80;;;25.70;72.00;;;;;;5008690;28;20046;-61
2022/11/27 07:33:39;;;;;;;7.25;1.80;;;25.60;72.00;;;;;;5008393;28;20045;-62
2022/11/27 07:36:28;;;;;;;4.68;1.80;;;25.50;72.50;;;;;;5009262;28;20565;-61
2022/11/27 07:38:56;;;;;;;4.40;1.63;;;25.40;72.90;;;;;;5008283;28;20041;-61
2022/11/27 07:41:24;;;;;;;10.05;1.70;;;25.30;74.80;;;;;;5008097;28;20022;-65
2022/11/27 07:43:51;;;;;;;5.00;1.70;;;25.30;75.20;;;;;;5008275;28;20029;-62
2022/11/27 07:46:22;;;;;;;5.15;1.95;;;25.20;77.30;;;;;;5007861;28;20030;-61
2022/11/27 07:48:49;;;;;;;11.27;2.08;;;25.00;80.70;;;;;;5008161;28;20026;-61
2022/11/27 07:51:19;;;;;;;13.77;2.15;;;24.70;82.70;;;;;;5008215;28;20044;-61
2022/11/27 07:53:47;;;;;;;10.93;2.35;;;24.50;80.30;;;;;;5007210;28;20526;-61
2022/11/27 07:56:15;;;;;;;5.68;1.38;;;24.20;81.80;;;;;;5007220;28;20050;-61
2022/11/27 07:58:43;;;;;;;6.85;2.55;;;24.00;83.50;;;;;;5007356;28;20373;-61
2022/11/27 08:01:12;;;;;;;9.90;2.03;;;23.80;86.70;;;;;;5006761;28;20398;-61
2022/11/27 08:03:43;;;;;;;8.65;1.50;;;23.50;89.00;;;;;;5007686;28;20030;-61
2022/11/27 08:06:24;;;;;;;7.50;1.58;;;23.30;90.10;;;;;;5007566;28;20811;-61
2022/11/27 08:08:54;;;;;;;5.93;2.20;;;22.90;94.10;;;;;;5007145;28;20037;-61
2022/11/27 08:11:23;;;;;;;9.68;2.20;;;22.50;96.50;;;;;;5007585;28;20040;-60
2022/11/27 08:13:54;;;;;;;6.85;2.00;;;22.10;99.90;;;;;;5006301;28;20795;-60
2022/11/27 08:16:21;;;;;;;4.00;2.20;;;21.80;99.90;;;;;;5007248;28;20026;-60
2022/11/27 08:18:49;;;;;;;3.92;1.67;;;21.60;99.90;;;;;;5006469;28;20117;-60
2022/11/27 08:21:16;;;;;;;2.60;1.15;;;21.60;99.90;;;;;;5013151;28;20025;-60
2022/11/27 08:23:43;;;;;;;4.75;1.38;;;21.60;97.60;;;;;;5017437;28;20407;-60
2022/11/27 08:26:11;;;;;;;9.70;1.00;;;21.50;99.00;;;;;;5006285;28;20034;-60
2022/11/27 08:28:39;;;;;;;1.50;1.00;;;21.40;98.60;;;;;;5007126;28;20483;-60
2022/11/27 08:31:08;;;;;;;3.70;1.08;;;21.20;99.30;;;;;;5006482;28;20060;-60
2022/11/27 08:33:36;;;;;;;6.32;0.82;;;21.10;99.50;;;;;;5006323;28;20042;-61
2022/11/27 08:36:04;;;;;;;3.88;1.17;;;21.00;98.10;;;;;;5006887;28;20041;-61
2022/11/27 08:38:31;;;;;;;3.20;0.95;;;20.90;99.70;;;;;;5006701;28;20083;-61
2022/11/27 08:41:01;;;;;;;4.63;0.60;;;20.70;99.90;;;;;;5006289;28;20495;-60
2022/11/27 08:43:29;;;;;;;1.98;0.60;;;20.50;99.90;;;;;;5006582;28;20510;-61
2022/11/27 08:45:56;;;;;;;2.55;0.60;;;20.40;99.90;;;;;;5006350;28;20108;-61
2022/11/27 08:48:24;;;;;;;1.75;0.80;;;20.40;99.90;;;;;;5006603;28;20030;-61
2022/11/27 08:50:52;;;;;;;2.75;1.05;;;20.30;99.90;;;;;;5006869;28;20044;-62
2022/11/27 08:53:20;;;;;;;4.22;1.52;;;20.30;99.90;;;;;;5005046;28;20022;-61
2022/11/27 08:55:47;;;;;;;2.10;0.90;;;20.20;99.90;;;;;;5005981;28;20038;-62
2022/11/27 08:58:15;;;;;;;3.00;0.85;;;20.20;99.90;;;;;;5006273;28;20707;-62
2022/11/27 09:00:42;;;;;;;2.83;1.10;;;20.10;99.90;;;;;;5006722;28;20421;-60
2022/11/27 09:03:11;;;;;;;3.97;0.98;;;20.00;99.90;;;;;;5006468;28;20044;-61
2022/11/27 09:05:43;;;;;;;6.03;1.02;;;19.90;99.90;;;;;;5006234;28;20107;-60
2022/11/27 09:08:15;;;;;;;3.63;1.00;;;19.80;99.90;;;;;;5005722;28;20033;-61
2022/11/27 09:10:42;;;;;;;2.60;1.00;;;19.70;99.90;;;;;;5005332;28;20034;-61
2022/11/27 09:13:09;;;;;;;4.35;1.20;;;19.70;99.90;;;;;;5005684;28;20033;-60
2022/11/27 09:15:36;;;;;;;1.73;0.98;;;19.70;99.90;;;;;;5006621;28;20045;-61
2022/11/27 09:18:04;;;;;;;1.55;1.00;;;19.70;99.90;;;;;;5006002;28;20084;-61
2022/11/27 09:20:31;;;;;;;5.18;1.02;;;19.60;99.90;;;;;;5006078;28;20046;-61
2022/11/27 09:23:01;;;;;;;2.13;1.40;;;19.60;99.90;;;;;;5006374;28;20021;-61
2022/11/27 09:25:28;;;;;;;2.05;0.80;;;19.50;99.90;;;;;;5006575;28;20033;-61
2022/11/27 09:27:56;;;;;;;1.58;0.82;;;19.40;99.90;;;;;;4990362;28;20026;-62
2022/11/27 09:30:23;;;;;;;2.95;0.80;;;19.30;99.90;;;;;;5004766;28;20025;-62
2022/11/27 09:32:51;;;;;;;2.38;0.88;;;19.20;99.90;;;;;;5005179;28;20049;-61
2022/11/27 09:35:18;;;;;;;5.18;1.00;;;19.10;99.90;;;;;;5005523;28;20044;-62
2022/11/27 09:37:46;;;;;;;1.23;0.60;;;19.00;99.90;;;;;;5005374;28;20096;-60
2022/11/27 09:40:17;;;;;;;4.10;1.00;;;19.00;99.90;;;;;;5005699;28;20442;-62
2022/11/27 09:43:01;;;;;;;2.00;0.88;;;18.90;99.90;;;;;;5004402;28;20040;-60
2022/11/27 09:45:29;;;;;;;3.35;1.02;;;18.90;99.90;;;;;;5005080;28;20116;-61
2022/11/27 09:48:01;;;;;;;2.40;1.10;;;18.90;99.90;;;;;;5006099;28;20030;-61
2022/11/27 09:50:41;;;;;;;3.28;0.90;;;18.90;99.90;;;;;;5005062;28;20030;-62
2022/11/27 09:53:18;;;;;;;5.45;1.35;;;19.00;99.90;;;;;;5005386;28;20044;-61
2022/11/27 09:55:49;;;;;;;3.50;1.30;;;19.10;99.90;;;;;;5005834;28;20042;-62
2022/11/27 09:58:41;;;;;;;3.42;1.10;;;19.20;99.90;;;;;;5004733;28;20518;-62
2022/11/27 10:01:30;;;;;;;4.00;1.17;;;19.30;99.90;;;;;;5005299;28;20026;-61
2022/11/27 10:04:00;;;;;;;6.55;1.33;;;19.40;99.90;;;;;;5006038;28;20029;-61
2022/11/27 10:07:04;;;;;;;3.38;1.83;;;19.50;99.90;;;;;;5005878;28;20025;-61
2022/11/27 10:09:53;;;;;;;3.05;0.90;;;19.50;99.90;;;;;;5004732;28;20030;-61
2022/11/27 10:12:44;;;;;;;5.00;0.90;;;19.40;99.90;;;;;;5004981;28;20022;-61
2022/11/27 10:15:24;;;;;;;4.35;1.10;;;19.30;99.90;;;;;;5008386;28;20037;-62
2022/11/27 10:18:12;;;;;;;7.93;1.35;;;19.20;99.90;;;;;;5005294;28;20088;-61
2022/11/27 10:20:53;;;;;;;3.00;0.95;;;19.10;99.90;;;;;;4995275;28;20087;-66
2022/11/27 10:23:33;;;;;;;3.58;1.17;;;19.10;99.90;;;;;;5000850;28;20022;-61
2022/11/27 10:26:23;;;;;;;2.33;0.75;;;18.90;99.90;;;;;;5004873;28;20034;-60
2022/11/27 10:28:57;;;;;;;4.35;0.95;;;18.90;99.90;;;;;;5004464;28;20256;-61
2022/11/27 10:32:19;;;;;;;4.35;1.33;;;18.80;99.90;;;;;;5004606;28;20026;-62
2022/11/27 10:34:49;;;;;;;2.47;0.95;;;18.80;99.90;;;;;;4953799;28;20050;-61
2022/11/27 10:37:29;;;;;;;4.38;1.42;;;18.70;99.90;;;;;;5003485;28;20030;-62
2022/11/27 10:39:59;;;;;;;4.88;0.93;;;18.70;99.90;;;;;;5003565;28;20116;-62
2022/11/27 10:42:38;;;;;;;4.10;1.52;;;18.60;99.90;;;;;;5005425;28;20446;-60
2022/11/27 10:45:23;;;;;;;4.38;1.30;;;18.60;99.90;;;;;;5004954;28;20766;-61
2022/11/27 10:47:50;;;;;;;2.92;0.82;;;18.60;99.90;;;;;;5005129;28;20074;-60
2022/11/27 10:50:19;;;;;;;2.38;0.88;;;18.60;99.90;;;;;;5004342;28;20092;-61
2022/11/27 10:53:11;;;;;;;1.85;0.70;;;18.60;99.90;;;;;;5004574;28;20702;-62
2022/11/27 10:56:02;;;;;;;4.80;0.90;;;18.60;99.90;;;;;;5008757;28;20038;-60
2022/11/27 10:58:35;;;;;;;1.02;0.70;;;18.60;99.90;;;;;;5007916;28;20793;-60
2022/11/27 11:01:05;;;;;;;2.17;1.02;;;18.60;99.90;;;;;;5007870;28;20123;-61
2022/11/27 11:03:34;;;;;;;3.75;0.95;;;18.60;99.90;;;;;;5008622;28;20093;-61
2022/11/27 11:06:22;;;;;;;2.88;1.30;;;18.60;99.90;;;;;;5008764;28;20038;-62
2022/11/27 11:09:03;;;;;;;2.50;0.82;;;18.60;99.90;;;;;;5008003;28;20096;-60
2022/11/27 11:11:30;;;;;;;2.53;0.88;;;18.60;99.90;;;;;;5010034;28;20026;-60
2022/11/27 11:14:00;;;;;;;2.80;0.73;;;18.60;99.90;;;;;;5009715;28;20045;-62
2022/11/27 11:16:31;;;;;;;2.15;0.75;;;18.60;99.90;;;;;;5010858;28;20030;-61
2022/11/27 11:19:00;;;;;;;2.25;0.90;;;18.60;99.90;;;;;;5009821;28;20026;-66
2022/11/27 11:21:31;;;;;;;1.45;0.70;;;18.50;99.90;;;;;;5010253;28;20053;-60
2022/11/27 11:23:59;;;;;;;2.45;1.13;;;18.50;99.90;;;;;;5010123;28;20034;-61
2022/11/27 11:26:49;;;;;;;3.42;0.80;;;18.50;99.90;;;;;;5011016;28;20061;-60
2022/11/27 11:29:34;;;;;;;1.45;0.60;;;18.50;99.90;;;;;;5010897;28;20030;-59
2022/11/27 11:32:38;;;;;;;3.55;1.02;;;18.60;99.90;;;;;;5010478;28;20038;-59
2022/11/27 11:35:31;;;;;;;0.52;0.50;;;18.60;99.90;;;;;;5020896;28;20129;-60
2022/11/27 11:38:00;;;;;;;0.85;0.38;;;18.60;99.90;;;;;;5005219;28;20029;-60
2022/11/27 11:40:34;;;;;;;3.10;0.70;;;18.60;99.90;;;;;;5010903;28;20057;-61
2022/11/27 11:43:20;;;;;;;4.93;0.70;;;18.60;99.90;;;;;;5010474;28;20022;-60
2022/11/27 11:45:48;;;;;;;1.20;0.50;;;18.60;99.90;;;;;;5010653;28;20491;-62
2022/11/27 11:48:26;;;;;;;2.63;0.70;;;18.50;99.90;;;;;;5008129;28;20088;-61
2022/11/27 11:51:18;;;;;;;2.35;0.80;;;18.40;99.90;;;;;;5008569;28;20044;-61
2022/11/27 11:54:07;;;;;;;0.82;0.40;;;18.40;99.90;;;;;;5007675;28;20113;-59
2022/11/27 11:56:40;;;;;;;3.55;1.10;;;18.40;99.90;;;;;;5003823;28;20026;-65
2022/11/27 11:59:41;;;;;;;6.43;1.15;;;18.40;99.90;;;;;;5009095;28;20029;-59
2022/11/27 12:02:37;;;;;;;2.42;0.50;;;18.40;99.90;;;;;;5008338;28;20022;-61
2022/11/27 12:05:18;;;;;;;0.80;0.47;;;18.50;99.90;;;;;;5003623;28;20061;-61
2022/11/27 12:08:14;;;;;;;2.03;0.38;;;18.50;99.90;;;;;;5002352;28;20022;-61
2022/11/27 12:10:57;;;;;;;1.80;0.52;;;18.50;99.90;;;;;;5008786;28;20065;-61
2022/11/27 12:13:51;;;;;;;2.65;0.70;;;18.50;99.90;;;;;;5009474;28;20086;-61
2022/11/27 12:16:33;;;;;;;4.00;0.67;;;18.60;99.90;;;;;;5008838;28;20368;-61
2022/11/27 12:19:34;;;;;;;3.42;0.60;;;18.50;99.90;;;;;;5004238;28;20070;-58
2022/11/27 12:22:44;;;;;;;2.97;0.68;;;18.70;99.90;;;;;;5007463;28;20030;-59
2022/11/27 12:25:28;;;;;;;3.85;0.90;;;18.60;99.90;;;;;;5007539;28;20026;-62
2022/11/27 12:28:13;;;;;;;5.43;0.97;;;18.40;99.90;;;;;;5010101;28;20037;-62
2022/11/27 12:30:58;;;;;;;3.08;0.70;;;18.30;99.90;;;;;;5009065;28;20275;-63
2022/11/27 12:34:01;;;;;;;5.18;1.17;;;18.20;99.90;;;;;;4999129;28;20120;-62
2022/11/27 12:36:31;;;;;;;3.97;2.90;;;18.10;99.90;;;;;;5008486;28;20036;-63
2022/11/27 12:39:27;;;;;;;4.85;2.35;;;18.10;99.90;;;;;;5005021;28;20124;-63
2022/11/27 12:42:20;;;;;;;3.97;2.22;;;17.90;99.90;;;;;;5004616;28;20026;-61
2022/11/27 12:45:06;;;;;;;4.63;2.55;;;17.80;99.90;;;;;;5023718;28;20053;-61
2022/11/27 12:48:16;;;;;;;4.70;2.97;;;17.80;99.90;;;;;;5001859;28;20156;-61
2022/11/27 12:51:07;;;;;;;6.97;2.78;;;17.70;99.90;;;;;;5007549;28;20069;-61
2022/11/27 12:53:47;;;;;;;5.13;2.97;;;17.70;99.90;;;;;;5000055;28;20049;-61
2022/11/27 12:56:34;;;;;;;6.18;3.55;;;17.70;99.90;;;;;;5010888;28;20030;-61
2022/11/27 12:59:04;;;;;;;3.67;2.03;;;17.70;99.90;;;;;;5015075;28;20510;-61
2022/11/27 13:01:40;;;;;;;4.80;1.50;;;17.80;99.90;;;;;;5011100;28;20037;-61
2022/11/27 13:04:29;;;;;;;7.07;1.65;;;17.70;99.90;;;;;;5002999;28;20033;-61
2022/11/27 13:07:22;;;;;;;2.03;0.95;;;17.70;99.90;;;;;;5021229;28;20033;-62
2022/11/27 13:10:11;;;;;;;7.93;1.45;;;17.70;99.90;;;;;;5009913;28;20033;-62
2022/11/27 13:12:46;;;;;;;3.95;1.70;;;17.70;99.90;;;;;;5008406;28;20057;-66
2022/11/27 13:15:29;;;;;;;4.65;1.50;;;17.60;99.90;;;;;;5006194;28;20618;-64
2022/11/27 13:18:34;;;;;;;5.25;1.88;;;17.60;99.90;;;;;;5007615;28;20084;-62